Time;durP1;ratioP1;P1;durP2;ratioP2;P2;SDS_P1;SDS_P2;PMS_P1;PMS_P2;Temp;Humidity;BMP_temperature;BMP_pressure;BME280_temperature;BME280_humidity;BME280_pressure;Samples;Min_cycle;Max_cycle;Signal;HPM_P1;HPM_P2
2020/12/31 00:02:01;;;;;;;18.60;12.87;;;;;;;1.37;100.00;100427.86;1841325;78;26271;-78
2020/12/31 00:04:31;;;;;;;18.13;12.27;;;;;;;1.36;100.00;100425.38;1841407;78;26224;-76
2020/12/31 00:07:00;;;;;;;18.80;13.43;;;;;;;1.29;100.00;100427.37;1841272;78;26240;-77
2020/12/31 00:09:30;;;;;;;20.33;14.00;;;;;;;1.23;100.00;100429.16;1841245;78;26208;-77
2020/12/31 00:12:00;;;;;;;21.63;14.77;;;;;;;0.88;100.00;100436.42;1841179;78;26205;-76
2020/12/31 00:14:31;;;;;;;21.70;14.27;;;;;;;0.85;100.00;100439.09;1841300;78;26213;-76
2020/12/31 00:17:01;;;;;;;21.33;14.60;;;;;;;0.85;100.00;100440.47;1841245;78;26260;-78
2020/12/31 00:19:35;;;;;;;20.83;14.87;;;;;;;0.76;100.00;100441.01;1841193;78;26330;-77
2020/12/31 00:22:05;;;;;;;21.60;13.67;;;;;;;0.64;100.00;100440.13;1841175;78;26263;-78
2020/12/31 00:24:35;;;;;;;22.83;13.13;;;;;;;0.73;100.00;100445.55;1841250;78;26318;-77
2020/12/31 00:27:06;;;;;;;22.10;13.27;;;;;;;0.70;100.00;100444.13;1841189;78;26325;-78
2020/12/31 00:29:36;;;;;;;16.13;12.83;;;;;;;0.75;100.00;100451.64;1841181;78;26459;-77
2020/12/31 00:32:06;;;;;;;21.03;14.47;;;;;;;0.68;100.00;100444.91;1841158;78;26217;-77
2020/12/31 00:34:35;;;;;;;22.27;14.70;;;;;;;0.72;100.00;100439.28;1841317;78;26230;-78
2020/12/31 00:37:05;;;;;;;19.60;14.13;;;;;;;0.67;100.00;100445.12;1841412;78;26740;-78
2020/12/31 00:39:35;;;;;;;20.80;14.17;;;;;;;0.83;100.00;100439.84;1841459;78;26361;-78
2020/12/31 00:42:06;;;;;;;18.60;13.13;;;;;;;0.62;100.00;100444.98;1841380;78;26228;-78
2020/12/31 00:44:36;;;;;;;19.53;14.17;;;;;;;0.71;100.00;100451.27;1841349;78;26363;-78
2020/12/31 00:47:06;;;;;;;21.67;13.90;;;;;;;0.65;100.00;100442.61;1841428;78;26241;-78
2020/12/31 00:49:36;;;;;;;22.13;14.47;;;;;;;0.60;100.00;100444.39;1841411;78;26787;-78
2020/12/31 00:52:06;;;;;;;22.80;14.47;;;;;;;0.57;100.00;100440.20;1841376;78;26238;-78
2020/12/31 00:54:37;;;;;;;19.83;13.63;;;;;;;0.51;100.00;100446.60;1841408;78;26723;-77
2020/12/31 00:57:07;;;;;;;20.63;13.07;;;;;;;0.51;100.00;100445.23;1841308;78;26208;-77
2020/12/31 00:59:37;;;;;;;19.13;13.60;;;;;;;0.43;100.00;100436.80;1841511;78;26212;-77
2020/12/31 01:02:07;;;;;;;17.83;13.13;;;;;;;0.38;100.00;100444.87;1841536;78;26212;-77
2020/12/31 01:04:36;;;;;;;22.43;13.60;;;;;;;0.40;100.00;100446.83;1841413;78;26728;-77
2020/12/31 01:07:06;;;;;;;21.13;14.23;;;;;;;0.42;100.00;100443.87;1841378;78;26759;-77
2020/12/31 01:09:36;;;;;;;20.10;14.67;;;;;;;0.50;100.00;100446.29;1841238;78;26264;-77
2020/12/31 01:12:06;;;;;;;21.23;13.83;;;;;;;0.52;100.00;100445.52;1841368;78;26221;-77
2020/12/31 01:14:36;;;;;;;20.70;14.60;;;;;;;0.53;100.00;100449.92;1841477;78;26362;-77
2020/12/31 01:17:06;;;;;;;24.43;15.13;;;;;;;0.40;100.00;100443.25;1841324;78;26659;-77
2020/12/31 01:19:35;;;;;;;20.60;14.63;;;;;;;0.51;100.00;100452.59;1841318;78;26302;-77
2020/12/31 01:22:05;;;;;;;22.50;14.83;;;;;;;0.50;100.00;100449.02;1841436;78;26672;-77
2020/12/31 01:24:35;;;;;;;22.70;13.80;;;;;;;0.38;100.00;100448.97;1841364;78;26730;-78
2020/12/31 01:27:05;;;;;;;21.63;12.23;;;;;;;0.54;100.00;100452.12;1841323;78;26805;-77
2020/12/31 01:29:35;;;;;;;17.80;12.77;;;;;;;0.73;100.00;100455.95;1841315;78;26675;-77
2020/12/31 01:32:05;;;;;;;17.43;11.77;;;;;;;0.79;100.00;100450.94;1841360;78;26364;-78
2020/12/31 01:34:35;;;;;;;22.63;13.93;;;;;;;0.84;100.00;100450.25;1841284;78;26279;-78
2020/12/31 01:37:05;;;;;;;17.77;13.47;;;;;;;0.50;100.00;100448.19;1841382;78;26274;-78
2020/12/31 01:39:35;;;;;;;20.17;12.87;;;;;;;0.42;100.00;100454.80;1841344;78;26209;-78
2020/12/31 01:42:06;;;;;;;18.97;12.60;;;;;;;0.54;100.00;100457.06;1841301;78;26926;-79
2020/12/31 01:44:36;;;;;;;19.40;12.07;;;;;;;0.64;100.00;100458.70;1841234;78;26220;-78
2020/12/31 01:47:07;;;;;;;16.27;11.30;;;;;;;0.88;100.00;100455.03;1841294;78;26333;-77
2020/12/31 01:49:39;;;;;;;16.50;11.23;;;;;;;0.98;100.00;100461.31;1841276;78;26368;-80
2020/12/31 01:52:10;;;;;;;15.67;11.33;;;;;;;1.23;100.00;100459.78;1841262;78;26339;-79
2020/12/31 01:54:40;;;;;;;16.93;11.33;;;;;;;1.13;100.00;100455.41;1841407;78;26221;-77
2020/12/31 01:57:10;;;;;;;17.63;11.50;;;;;;;1.27;100.00;100465.09;1841311;78;26295;-79
2020/12/31 01:59:40;;;;;;;17.47;11.80;;;;;;;1.20;100.00;100458.86;1841325;78;26318;-77
2020/12/31 02:02:11;;;;;;;17.33;11.07;;;;;;;1.27;100.00;100464.55;1841274;78;26308;-78
2020/12/31 02:04:41;;;;;;;18.20;10.27;;;;;;;1.39;100.00;100465.95;1841234;78;26275;-79
2020/12/31 02:07:11;;;;;;;20.50;11.67;;;;;;;1.26;100.00;100462.05;1841325;78;26399;-79
2020/12/31 02:09:42;;;;;;;17.17;10.97;;;;;;;1.11;100.00;100466.59;1841332;78;26282;-77
2020/12/31 02:12:12;;;;;;;16.33;11.43;;;;;;;0.89;100.00;100468.17;1841323;78;26346;-79
2020/12/31 02:14:51;;;;;;;17.73;11.30;;;;;;;0.71;100.00;100467.67;1841256;78;26728;-78
2020/12/31 02:17:21;;;;;;;16.30;10.83;;;;;;;0.68;100.00;100479.07;1841289;78;26238;-78
2020/12/31 02:19:51;;;;;;;17.97;11.57;;;;;;;0.62;100.00;100479.13;1841313;78;26245;-77
2020/12/31 02:22:21;;;;;;;19.63;12.83;;;;;;;0.60;100.00;100487.55;1841174;78;26411;-77
2020/12/31 02:24:51;;;;;;;15.77;11.87;;;;;;;0.44;100.00;100484.91;1841314;78;26334;-79
2020/12/31 02:27:21;;;;;;;21.93;12.40;;;;;;;0.65;100.00;100495.06;1841318;78;26758;-77
2020/12/31 02:29:53;;;;;;;17.63;11.07;;;;;;;0.58;100.00;100496.53;1841373;78;26814;-77
2020/12/31 02:32:22;;;;;;;17.03;11.60;;;;;;;0.62;100.00;100488.70;1841394;78;26237;-77
2020/12/31 02:34:52;;;;;;;17.00;11.63;;;;;;;0.55;100.00;100487.43;1841275;78;26689;-77
2020/12/31 02:37:21;;;;;;;18.40;10.97;;;;;;;0.58;100.00;100484.23;1841341;78;26286;-77
2020/12/31 02:39:51;;;;;;;18.00;10.63;;;;;;;0.50;100.00;100490.53;1841315;78;26233;-79
2020/12/31 02:42:21;;;;;;;16.13;11.43;;;;;;;0.68;100.00;100483.17;1841318;78;26282;-78
2020/12/31 02:44:51;;;;;;;16.03;10.50;;;;;;;0.62;100.00;100479.13;1841266;78;26201;-79
2020/12/31 02:47:21;;;;;;;15.70;11.23;;;;;;;0.71;100.00;100484.06;1841386;78;26307;-77
2020/12/31 02:49:51;;;;;;;19.43;11.47;;;;;;;0.89;100.00;100494.14;1841356;78;26271;-77
2020/12/31 02:52:20;;;;;;;15.93;11.53;;;;;;;1.10;100.00;100485.96;1841364;78;26419;-77
2020/12/31 02:54:50;;;;;;;17.60;12.27;;;;;;;0.99;100.00;100490.30;1841256;78;26205;-77
2020/12/31 02:57:20;;;;;;;19.73;11.83;;;;;;;1.12;100.00;100486.55;1841326;78;26201;-77
2020/12/31 02:59:50;;;;;;;17.43;11.97;;;;;;;1.18;100.00;100485.63;1841192;78;26237;-77
2020/12/31 03:02:20;;;;;;;15.93;11.80;;;;;;;1.15;100.00;100478.73;1841248;78;26217;-77
2020/12/31 03:04:50;;;;;;;16.70;11.30;;;;;;;1.14;100.00;100478.43;1841318;78;26230;-77
2020/12/31 03:07:19;;;;;;;18.80;12.20;;;;;;;1.22;100.00;100480.83;1841327;78;26262;-78
2020/12/31 03:09:50;;;;;;;19.93;11.93;;;;;;;1.06;100.00;100480.66;1841256;78;26225;-78
2020/12/31 03:12:20;;;;;;;17.80;11.90;;;;;;;1.04;100.00;100476.78;1841259;78;26263;-79
2020/12/31 03:14:50;;;;;;;16.97;11.83;;;;;;;1.14;100.00;100478.43;1841269;78;26295;-77
2020/12/31 03:17:19;;;;;;;21.23;13.07;;;;;;;1.29;100.00;100480.19;1841360;78;26249;-79
2020/12/31 03:19:49;;;;;;;21.40;13.30;;;;;;;1.38;100.00;100479.31;1841156;78;26719;-77
2020/12/31 03:22:21;;;;;;;18.80;13.40;;;;;;;1.43;100.00;100479.45;1841232;78;26220;-77
2020/12/31 03:24:51;;;;;;;20.40;13.90;;;;;;;1.38;100.00;100481.52;1841263;78;26652;-78
2020/12/31 03:27:21;;;;;;;21.63;13.93;;;;;;;1.36;100.00;100489.15;1841300;78;26262;-77
2020/12/31 03:29:51;;;;;;;22.73;14.53;;;;;;;1.30;100.00;100488.70;1841260;78;26793;-77
2020/12/31 03:32:21;;;;;;;25.43;14.67;;;;;;;1.39;100.00;100490.56;1841216;78;26324;-79
2020/12/31 03:34:51;;;;;;;21.30;15.23;;;;;;;1.51;100.00;100487.31;1841216;78;26249;-77
2020/12/31 03:37:22;;;;;;;28.40;16.90;;;;;;;1.54;100.00;100494.25;1841254;78;26201;-77
2020/12/31 03:39:53;;;;;;;26.53;17.13;;;;;;;1.68;100.00;100495.15;1841243;78;26234;-77
2020/12/31 03:42:23;;;;;;;25.90;17.53;;;;;;;1.71;100.00;100491.92;1841219;78;26660;-78
2020/12/31 03:44:53;;;;;;;27.63;18.07;;;;;;;1.87;100.00;100495.89;1841192;78;26317;-78
2020/12/31 03:47:22;;;;;;;31.83;19.03;;;;;;;1.90;100.00;100494.04;1841251;78;26207;-78
2020/12/31 03:49:52;;;;;;;27.07;18.23;;;;;;;1.91;100.00;100488.03;1841259;78;26208;-78
2020/12/31 03:52:22;;;;;;;31.03;18.53;;;;;;;1.97;100.00;100485.73;1841251;78;26249;-78
2020/12/31 03:54:52;;;;;;;30.33;19.03;;;;;;;1.91;100.00;100483.39;1841314;78;26274;-78
2020/12/31 03:57:22;;;;;;;28.27;18.87;;;;;;;1.90;100.00;100477.61;1841238;78;26205;-77
2020/12/31 03:59:52;;;;;;;30.17;18.47;;;;;;;1.92;100.00;100480.96;1841191;78;26205;-77
2020/12/31 04:02:21;;;;;;;33.93;19.13;;;;;;;1.84;100.00;100473.07;1841122;78;26213;-77
2020/12/31 04:04:51;;;;;;;30.47;18.43;;;;;;;1.94;100.00;100474.69;1841212;78;26817;-77
2020/12/31 04:07:23;;;;;;;29.53;19.07;;;;;;;2.02;100.00;100476.23;1841272;78;26241;-78
2020/12/31 04:09:52;;;;;;;32.30;18.73;;;;;;;1.98;100.00;100474.52;1841234;78;26244;-78
2020/12/31 04:12:22;;;;;;;29.77;18.90;;;;;;;1.99;100.00;100479.45;1841091;78;26331;-78
2020/12/31 04:14:52;;;;;;;31.50;20.30;;;;;;;2.02;100.00;100480.34;1841333;78;26696;-78
2020/12/31 04:17:22;;;;;;;31.47;19.63;;;;;;;2.01;100.00;100478.70;1841190;78;26750;-78
2020/12/31 04:19:52;;;;;;;31.43;18.30;;;;;;;1.98;100.00;100482.73;1841222;78;26212;-78
2020/12/31 04:22:22;;;;;;;32.13;19.60;;;;;;;1.97;100.00;100493.38;1841220;78;26286;-78
2020/12/31 04:24:53;;;;;;;32.53;18.50;;;;;;;1.96;100.00;100489.00;1841258;78;26213;-77
2020/12/31 04:27:23;;;;;;;29.27;18.53;;;;;;;1.97;100.00;100488.47;1841327;78;26298;-79
2020/12/31 04:29:52;;;;;;;31.80;19.73;;;;;;;2.01;100.00;100483.61;1841426;78;26318;-78
2020/12/31 04:32:22;;;;;;;29.17;18.33;;;;;;;2.05;100.00;100481.25;1841224;78;26216;-79
2020/12/31 04:34:52;;;;;;;26.73;18.03;;;;;;;2.05;100.00;100489.48;1841400;78;26352;-78
2020/12/31 04:37:22;;;;;;;30.50;18.17;;;;;;;2.01;100.00;100489.09;1841427;78;26224;-78
2020/12/31 04:39:52;;;;;;;28.57;18.07;;;;;;;2.03;100.00;100481.48;1841264;78;26680;-78
2020/12/31 04:42:23;;;;;;;30.07;19.27;;;;;;;1.98;100.00;100483.26;1841329;78;26241;-77
2020/12/31 04:44:53;;;;;;;29.10;19.53;;;;;;;2.04;100.00;100490.54;1841278;78;26291;-78
2020/12/31 04:47:24;;;;;;;29.13;18.30;;;;;;;1.99;100.00;100491.25;1841343;78;26242;-78
2020/12/31 04:49:54;;;;;;;27.27;18.13;;;;;;;1.95;100.00;100488.69;1841346;78;26342;-80
2020/12/31 04:52:25;;;;;;;28.13;18.27;;;;;;;1.95;100.00;100490.06;1841375;78;26209;-80
2020/12/31 04:54:56;;;;;;;31.17;17.90;;;;;;;1.93;100.00;100494.09;1841401;78;26341;-79
2020/12/31 04:57:27;;;;;;;30.57;19.60;;;;;;;1.94;100.00;100488.39;1841218;78;26581;-78
2020/12/31 04:59:58;;;;;;;32.03;18.47;;;;;;;1.95;100.00;100480.47;1832570;77;936853;-80
2020/12/31 05:02:28;;;;;;;27.57;17.77;;;;;;;1.95;100.00;100484.58;1862062;77;26236;-80
2020/12/31 05:05:01;;;;;;;30.20;19.03;;;;;;;1.94;100.00;100486.17;1862128;77;26263;-79
2020/12/31 05:07:30;;;;;;;29.90;18.53;;;;;;;2.00;100.00;100479.23;1862042;77;26306;-79
2020/12/31 05:10:13;;;;;;;30.00;18.70;;;;;;;1.91;100.00;100492.14;1862005;77;26761;-79
2020/12/31 05:12:43;;;;;;;27.67;17.13;;;;;;;1.89;100.00;100481.41;1862242;77;26223;-77
2020/12/31 05:15:14;;;;;;;25.70;16.47;;;;;;;1.80;100.00;100484.20;1862183;77;26224;-79
2020/12/31 05:17:44;;;;;;;29.47;18.00;;;;;;;1.80;100.00;100483.67;1862102;77;26666;-80
2020/12/31 05:20:17;;;;;;;29.83;18.43;;;;;;;1.74;100.00;100484.63;1862267;77;26659;-80
2020/12/31 05:22:47;;;;;;;29.27;18.57;;;;;;;1.76;100.00;100487.95;1862135;77;26259;-79
2020/12/31 05:25:18;;;;;;;31.53;19.03;;;;;;;1.75;100.00;100486.84;1862061;77;26693;-79
2020/12/31 05:27:48;;;;;;;29.63;18.27;;;;;;;1.76;100.00;100489.85;1863999;76;26200;-79
2020/12/31 05:30:18;;;;;;;28.60;18.90;;;;;;;1.88;100.00;100488.52;1862132;77;26212;-79
2020/12/31 05:32:48;;;;;;;29.10;17.90;;;;;;;1.69;100.00;100488.61;1862252;77;26217;-79
2020/12/31 05:35:19;;;;;;;31.27;18.13;;;;;;;1.67;100.00;100496.77;1862116;77;26331;-79
2020/12/31 05:37:49;;;;;;;28.93;18.07;;;;;;;1.72;100.00;100498.23;1862131;77;26375;-78
2020/12/31 05:40:18;;;;;;;26.20;18.07;;;;;;;1.86;100.00;100504.34;1862176;77;26313;-78
2020/12/31 05:42:48;;;;;;;27.03;18.03;;;;;;;1.84;100.00;100512.77;1862121;77;26566;-78
2020/12/31 05:45:24;;;;;;;27.87;18.20;;;;;;;1.72;100.00;100511.40;1862086;77;26768;-78
2020/12/31 05:47:54;;;;;;;26.30;17.00;;;;;;;1.79;100.00;100510.77;1862322;76;26301;-79
2020/12/31 05:50:26;;;;;;;27.57;17.57;;;;;;;1.78;100.00;100504.99;1862021;77;26655;-79
2020/12/31 05:52:57;;;;;;;25.87;15.77;;;;;;;1.84;100.00;100508.66;1862105;77;26639;-79
2020/12/31 05:55:28;;;;;;;26.63;16.93;;;;;;;1.78;100.00;100510.47;1862159;77;26317;-77
2020/12/31 05:57:59;;;;;;;29.60;17.10;;;;;;;1.77;100.00;100513.43;1862150;77;26619;-77
2020/12/31 06:00:30;;;;;;;28.23;16.97;;;;;;;1.82;100.00;100519.88;1862063;77;26275;-77
2020/12/31 06:03:01;;;;;;;28.93;17.80;;;;;;;1.80;100.00;100519.27;1862137;77;26363;-78
2020/12/31 06:05:31;;;;;;;25.53;16.30;;;;;;;1.84;100.00;100519.62;1862221;77;26223;-77
2020/12/31 06:08:01;;;;;;;24.63;16.37;;;;;;;1.82;100.00;100513.56;1862146;77;26196;-77
2020/12/31 06:10:34;;;;;;;25.37;16.73;;;;;;;1.79;100.00;100508.56;1862025;77;26239;-77
2020/12/31 06:13:05;;;;;;;26.40;18.00;;;;;;;1.77;100.00;100514.27;1862159;77;26216;-77
2020/12/31 06:15:37;;;;;;;26.53;16.03;;;;;;;1.72;100.00;100514.14;1862098;77;26212;-78
2020/12/31 06:18:08;;;;;;;24.60;15.73;;;;;;;1.72;100.00;100513.30;1862145;77;26692;-77
2020/12/31 06:20:39;;;;;;;24.73;15.47;;;;;;;1.70;100.00;100517.66;1862119;77;26216;-77
2020/12/31 06:23:10;;;;;;;27.37;16.57;;;;;;;1.72;100.00;100518.77;1861933;77;26306;-78
2020/12/31 06:25:43;;;;;;;25.40;16.00;;;;;;;1.70;100.00;100527.24;1862181;77;26675;-79
2020/12/31 06:28:16;;;;;;;25.17;16.07;;;;;;;1.61;100.00;100526.44;1862093;77;26627;-78
2020/12/31 06:30:47;;;;;;;24.17;16.57;;;;;;;1.50;100.00;100533.54;1862181;77;26316;-78
2020/12/31 06:33:25;;;;;;;25.10;16.23;;;;;;;1.61;100.00;100538.23;1862071;77;26216;-78
2020/12/31 06:35:58;;;;;;;25.00;15.60;;;;;;;1.60;100.00;100539.82;1862181;77;26659;-77
2020/12/31 06:38:36;;;;;;;27.27;15.40;;;;;;;1.56;100.00;100524.94;1862092;77;26220;-77
2020/12/31 06:41:08;;;;;;;28.03;16.57;;;;;;;1.56;100.00;100529.88;1862224;77;26639;-77
2020/12/31 06:43:39;;;;;;;31.83;17.63;;;;;;;1.58;100.00;100533.23;1864487;76;26648;-78
2020/12/31 06:46:20;;;;;;;24.00;15.40;;;;;;;1.66;100.00;100535.63;1862115;77;26287;-82
2020/12/31 06:48:54;;;;;;;25.77;15.47;;;;;;;1.61;100.00;100531.91;1862000;77;26244;-78
2020/12/31 06:51:27;;;;;;;25.87;16.37;;;;;;;1.62;100.00;100530.32;1862094;77;26722;-78
2020/12/31 06:53:58;;;;;;;27.30;16.67;;;;;;;1.68;100.00;100532.10;1862078;77;26271;-77
2020/12/31 06:56:45;;;;;;;25.67;15.83;;;;;;;1.60;100.00;100530.23;1862034;77;26224;-77
2020/12/31 06:59:32;;;;;;;27.07;16.07;;;;;;;1.59;100.00;100540.34;1862133;77;26204;-80
2020/12/31 07:02:04;;;;;;;24.73;14.73;;;;;;;1.59;100.00;100538.14;1862152;77;26216;-86
2020/12/31 07:04:35;;;;;;;26.93;16.00;;;;;;;1.55;100.00;100539.15;1862130;77;26224;-80
2020/12/31 07:07:20;;;;;;;28.17;16.67;;;;;;;1.52;100.00;100536.05;1861970;77;26216;-79
2020/12/31 07:09:54;;;;;;;26.20;16.50;;;;;;;1.42;100.00;100547.55;1862249;76;26753;-79
2020/12/31 07:12:35;;;;;;;27.53;16.63;;;;;;;1.38;100.00;100537.61;1861971;77;26256;-79
2020/12/31 07:15:07;;;;;;;25.80;14.83;;;;;;;1.37;100.00;100544.67;1862147;77;26201;-80
2020/12/31 07:17:38;;;;;;;27.57;15.90;;;;;;;1.44;100.00;100545.44;1862097;77;26214;-82
2020/12/31 07:20:11;;;;;;;30.33;16.40;;;;;;;1.49;100.00;100556.52;1862179;77;26220;-81
2020/12/31 07:22:43;;;;;;;27.57;15.97;;;;;;;1.39;100.00;100554.87;1862244;77;26240;-85
2020/12/31 07:25:15;;;;;;;29.77;16.60;;;;;;;1.33;100.00;100552.52;1862104;77;26219;-81
2020/12/31 07:27:47;;;;;;;27.80;17.03;;;;;;;1.20;100.00;100555.97;1862054;77;26214;-82
2020/12/31 07:30:21;;;;;;;27.37;15.60;;;;;;;1.28;100.00;100558.41;1862146;77;26207;-81
2020/12/31 07:33:00;;;;;;;27.97;16.80;;;;;;;1.33;100.00;100566.73;1862132;77;26212;-81
2020/12/31 07:35:35;;;;;;;28.10;16.40;;;;;;;1.36;100.00;100567.66;1862194;77;26212;-81
2020/12/31 07:38:10;;;;;;;26.90;16.10;;;;;;;1.31;100.00;100569.72;1862042;77;26232;-81
2020/12/31 07:40:45;;;;;;;31.13;16.43;;;;;;;1.38;100.00;100577.82;1862125;77;26681;-82
2020/12/31 07:43:17;;;;;;;28.17;17.43;;;;;;;1.41;100.00;100582.85;1862023;77;26219;-82
2020/12/31 07:45:49;;;;;;;25.83;15.60;;;;;;;1.40;100.00;100579.81;1861983;77;26216;-81
2020/12/31 07:48:20;;;;;;;26.77;15.47;;;;;;;1.36;100.00;100585.44;1862109;77;26264;-83
2020/12/31 07:50:54;;;;;;;26.77;16.23;;;;;;;1.31;100.00;100582.56;1862116;77;26219;-80
2020/12/31 07:53:25;;;;;;;26.43;16.23;;;;;;;1.26;100.00;100588.72;1862105;77;26712;-80
2020/12/31 07:55:56;;;;;;;27.30;16.47;;;;;;;1.28;100.00;100596.71;1862122;77;26216;-81
2020/12/31 07:58:29;;;;;;;27.03;15.77;;;;;;;1.35;100.00;100596.08;1862092;77;26263;-81
2020/12/31 08:01:03;;;;;;;27.37;16.27;;;;;;;1.23;100.00;100594.66;1862277;77;26764;-81
2020/12/31 08:03:34;;;;;;;23.90;14.57;;;;;;;1.04;100.00;100589.42;1862078;77;26301;-81
2020/12/31 08:06:06;;;;;;;27.73;15.30;;;;;;;0.91;100.00;100598.62;1862183;77;26220;-80
2020/12/31 08:08:36;;;;;;;26.33;14.63;;;;;;;1.07;100.00;100608.94;1862104;77;26216;-81
2020/12/31 08:11:09;;;;;;;24.63;14.43;;;;;;;1.06;100.00;100607.83;1862229;77;26749;-83
2020/12/31 08:13:40;;;;;;;26.07;14.60;;;;;;;1.13;100.00;100605.83;1862276;77;26282;-85
2020/12/31 08:16:15;;;;;;;27.47;14.07;;;;;;;1.01;100.00;100613.14;1862299;77;26220;-88
2020/12/31 08:18:46;;;;;;;25.67;15.47;;;;;;;1.09;100.00;100607.36;1862282;77;26695;-86
2020/12/31 08:21:16;;;;;;;26.73;14.50;;;;;;;1.03;100.00;100609.66;1862353;77;26216;-86
2020/12/31 08:23:49;;;;;;;25.33;14.23;;;;;;;1.00;100.00;100616.41;1862167;77;26248;-89
2020/12/31 08:26:20;;;;;;;25.87;14.40;;;;;;;1.02;100.00;100617.55;1862297;77;26211;-89
2020/12/31 08:28:50;;;;;;;25.90;13.67;;;;;;;1.00;100.00;100618.30;1862357;77;26201;-86
2020/12/31 08:31:23;;;;;;;25.90;14.77;;;;;;;1.07;100.00;100618.52;1862352;77;26207;-88
2020/12/31 08:33:59;;;;;;;28.30;14.13;;;;;;;1.19;100.00;100611.77;1862382;77;26212;-85
2020/12/31 08:36:29;;;;;;;27.80;13.80;;;;;;;1.20;100.00;100618.35;1862365;77;26224;-83
2020/12/31 08:39:01;;;;;;;23.53;14.23;;;;;;;1.13;100.00;100623.61;1862159;77;26691;-85
2020/12/31 08:41:31;;;;;;;26.80;14.77;;;;;;;1.03;100.00;100628.24;1862658;76;26274;-81
2020/12/31 08:44:04;;;;;;;22.97;13.63;;;;;;;1.17;100.00;100618.83;1862251;77;26231;-84
2020/12/31 08:46:33;;;;;;;25.07;13.70;;;;;;;1.26;100.00;100628.92;1862295;77;26208;-85
2020/12/31 08:49:03;;;;;;;22.90;13.27;;;;;;;1.24;100.00;100628.33;1862200;77;26721;-86
2020/12/31 08:51:33;;;;;;;25.37;13.23;;;;;;;1.20;100.00;100625.72;1862262;77;26732;-83
2020/12/31 08:54:04;;;;;;;24.67;13.03;;;;;;;1.15;100.00;100634.65;1862240;77;26196;-86
2020/12/31 08:56:34;;;;;;;25.40;13.10;;;;;;;1.12;100.00;100632.34;1862213;77;26224;-84
2020/12/31 08:59:08;;;;;;;25.60;13.30;;;;;;;1.17;100.00;100635.77;1862116;77;26308;-85
2020/12/31 09:01:38;;;;;;;24.77;13.07;;;;;;;1.22;100.00;100638.13;1862317;77;26204;-85
2020/12/31 09:04:10;;;;;;;23.57;13.03;;;;;;;1.25;100.00;100638.19;1863286;77;26220;-90
2020/12/31 09:06:51;;;;;;;22.70;11.93;;;;;;;1.26;100.00;100634.39;1864224;77;26212;-89
2020/12/31 09:09:22;;;;;;;18.97;10.40;;;;;;;1.28;100.00;100637.19;1799931;80;26263;-90
2020/12/31 09:12:01;;;;;;;18.53;10.50;;;;;;;1.24;100.00;100642.81;1818728;78;26286;-88
2020/12/31 09:14:32;;;;;;;19.07;10.90;;;;;;;1.32;100.00;100642.53;1818573;78;26651;-90
2020/12/31 09:17:03;;;;;;;18.83;11.27;;;;;;;1.33;100.00;100640.61;1818298;79;26338;-87
2020/12/31 09:19:33;;;;;;;17.70;10.87;;;;;;;1.32;100.00;100648.53;1814298;78;26298;-87
2020/12/31 09:22:13;;;;;;;23.47;11.43;;;;;;;1.27;100.00;100651.95;1817943;79;26327;-86
2020/12/31 09:24:48;;;;;;;18.80;10.70;;;;;;;1.35;100.00;100654.37;1821699;79;26709;-88
2020/12/31 09:27:25;;;;;;;23.07;12.33;;;;;;;1.34;100.00;100654.06;1797176;80;26340;-84
2020/12/31 09:29:59;;;;;;;22.77;12.13;;;;;;;1.38;100.00;100649.80;1796859;80;26715;-80
2020/12/31 09:32:30;;;;;;;22.07;11.87;;;;;;;1.27;100.00;100649.22;1834222;78;26242;-79
2020/12/31 09:35:02;;;;;;;19.93;10.90;;;;;;;1.17;100.00;100650.81;1828045;78;26305;-83
2020/12/31 09:37:51;;;;;;;19.83;10.83;;;;;;;1.17;100.00;100658.48;1827857;78;26662;-87
2020/12/31 09:40:21;;;;;;;22.03;11.50;;;;;;;1.10;100.00;100655.00;1827834;78;26312;-86
2020/12/31 09:42:51;;;;;;;19.63;10.30;;;;;;;1.24;100.00;100659.23;1827669;78;26223;-87
2020/12/31 09:45:22;;;;;;;24.60;11.93;;;;;;;1.20;100.00;100661.28;1827713;78;26360;-88
2020/12/31 09:47:51;;;;;;;21.70;11.10;;;;;;;1.15;100.00;100663.37;1827801;78;26238;-84
2020/12/31 09:50:21;;;;;;;20.33;12.17;;;;;;;1.23;100.00;100660.32;1827728;78;26278;-89
2020/12/31 09:52:51;;;;;;;21.53;11.40;;;;;;;1.22;100.00;100657.27;1827942;78;26231;-91
2020/12/31 09:55:21;;;;;;;22.00;11.87;;;;;;;1.18;100.00;100664.27;1827906;78;26741;-88
2020/12/31 09:57:51;;;;;;;24.57;12.07;;;;;;;1.33;100.00;100664.70;1827909;78;26372;-92
2020/12/31 10:00:22;;;;;;;20.63;12.40;;;;;;;1.31;100.00;100661.91;1827739;78;26336;-89
2020/12/31 10:02:51;;;;;;;20.97;12.37;;;;;;;1.33;100.00;100666.59;1828087;78;26288;-89
2020/12/31 10:05:21;;;;;;;24.00;12.83;;;;;;;1.34;100.00;100662.80;1827767;78;26305;-87
2020/12/31 10:07:51;;;;;;;23.57;11.60;;;;;;;1.41;100.00;100669.58;1827706;78;26219;-87
2020/12/31 10:10:21;;;;;;;23.63;12.30;;;;;;;1.64;100.00;100663.67;1827634;78;26219;-83
2020/12/31 10:12:51;;;;;;;21.23;11.23;;;;;;;1.61;100.00;100669.62;1827750;77;26274;-85
2020/12/31 10:15:21;;;;;;;19.97;10.70;;;;;;;1.57;100.00;100661.57;1827504;78;26302;-85
2020/12/31 10:17:51;;;;;;;23.20;11.57;;;;;;;1.56;100.00;100665.37;1827625;78;26768;-86
2020/12/31 10:20:20;;;;;;;21.37;11.13;;;;;;;1.65;100.00;100672.72;1827662;78;26410;-87
2020/12/31 10:22:50;;;;;;;18.43;10.67;;;;;;;1.65;100.00;100673.56;1827689;78;26504;-86
2020/12/31 10:25:20;;;;;;;19.73;10.77;;;;;;;1.54;100.00;100677.06;1827515;78;26296;-85
2020/12/31 10:27:50;;;;;;;21.00;10.87;;;;;;;1.67;100.00;100685.10;1827714;78;26231;-87
2020/12/31 10:30:23;;;;;;;19.53;10.77;;;;;;;1.72;100.00;100677.56;1827640;78;26223;-87
2020/12/31 10:32:53;;;;;;;19.63;10.83;;;;;;;1.60;100.00;100677.52;1827659;78;26403;-87
2020/12/31 10:35:22;;;;;;;18.80;10.13;;;;;;;1.74;100.00;100680.92;1827795;78;26293;-87
2020/12/31 10:37:52;;;;;;;20.30;10.63;;;;;;;1.78;100.00;100681.59;1827814;78;26295;-87
2020/12/31 10:40:22;;;;;;;16.50;9.63;;;;;;;1.72;100.00;100685.78;1827588;78;26352;-86
2020/12/31 10:42:52;;;;;;;18.77;10.50;;;;;;;1.78;100.00;100680.23;1827765;78;26275;-86
2020/12/31 10:45:22;;;;;;;18.10;9.90;;;;;;;1.85;100.00;100674.64;1827719;78;26219;-87
2020/12/31 10:47:52;;;;;;;17.50;9.83;;;;;;;1.79;100.00;100675.59;1827732;78;26464;-86
2020/12/31 10:50:22;;;;;;;17.87;9.80;;;;;;;1.72;100.00;100670.19;1827751;78;26674;-87
2020/12/31 10:52:51;;;;;;;21.43;10.07;;;;;;;1.71;100.00;100678.66;1827781;78;26387;-85
2020/12/31 10:55:21;;;;;;;17.60;9.70;;;;;;;1.66;100.00;100675.77;1827715;78;26223;-83
2020/12/31 10:57:51;;;;;;;19.33;10.87;;;;;;;1.73;100.00;100678.72;1827899;78;26306;-87
2020/12/31 11:00:21;;;;;;;16.17;9.03;;;;;;;1.73;100.00;100679.24;1827651;78;26231;-85
2020/12/31 11:02:51;;;;;;;16.67;9.70;;;;;;;1.65;100.00;100684.52;1827845;78;26320;-89
2020/12/31 11:05:21;;;;;;;18.77;10.20;;;;;;;1.65;100.00;100674.09;1827900;78;26219;-89
2020/12/31 11:07:51;;;;;;;18.80;9.10;;;;;;;1.78;100.00;100675.28;1827722;78;26226;-91
2020/12/31 11:10:20;;;;;;;18.50;10.03;;;;;;;1.79;100.00;100670.95;1827910;78;26224;-88
2020/12/31 11:12:50;;;;;;;19.40;10.70;;;;;;;1.94;100.00;100672.41;1827700;78;26227;-89
2020/12/31 11:15:20;;;;;;;17.23;9.93;;;;;;;1.88;100.00;100676.10;1827824;77;26721;-88
2020/12/31 11:17:50;;;;;;;17.73;9.70;;;;;;;1.90;100.00;100670.68;1827835;78;26222;-91
2020/12/31 11:20:20;;;;;;;18.97;10.10;;;;;;;1.97;100.00;100672.78;1827886;78;26293;-91
2020/12/31 11:22:51;;;;;;;16.07;9.77;;;;;;;2.03;100.00;100673.75;1827762;78;26252;-87
2020/12/31 11:25:21;;;;;;;19.77;10.47;;;;;;;2.16;100.00;100671.66;1827847;78;26324;-84
2020/12/31 11:27:51;;;;;;;17.50;10.60;;;;;;;2.23;100.00;100679.23;1827715;78;26238;-85